Terminal Aerodrome Forecast
Issued by NWS Melbourne, FL

Home | Current Version | Previous Version | Text Only | Print | Product List | Glossary On
Versions: 1 2 3 4 5 6 7 8 9 10 11 12 13 14 15 16 17 18 19 20 21 22 23 24
000
FTUS42 KMLB 220500
TAFMCO
TAF
KMCO 220533Z 2206/2306 VRB03KT 6SM -RA BR SCT005 BKN035 OVC080
      TEMPO 2206/2210 3SM -RA BR BKN005 OVC020
     FM221500 17009KT P6SM VCSH SCT020 BKN050 BKN100=

USA.gov is the U.S. government's official web portal to all federal, state and local government web resources and services.